Maersk Visby — 9V8827 — position and weather

sailwx.info

Track history (hours):
 
Tides and Currents Weather Stations Pressure Air Temp Water Temp Dewpoint Dewpoint Depression Visibility Wind Speed Wind Dir Waves Ship Positions

Maersk Visby

Last reported at 2014-Dec-21 16:06 UTC. Time now 2014-Dec-22 05:00 UTC.
Position N 34°12' W 076°29'.

Length 180 m; draft 8.2 m.

Type: Ship (hazmat cat D). MMSI: 564979000.

Date/timePositionNaut miles runAvg speedWind from/ knotsBaromVisibWave heightAir tempDewpointWater temp
2014-Dec-21 16:06N 34°12' W 076°29'712.3
2014-Dec-21 15:30N 34°16' W 076°22'216 6.0
2014-Dec-20 03:14N 37°52' W 076°10'1317.9
2014-Dec-20 02:29N 38°05' W 076°13'3618.5
2014-Dec-20 00:33N 38°40' W 076°25'1817.6
2014-Dec-19 23:34N 38°57' W 076°23'1313.2
2014-Dec-19 22:33N 39°10' W 076°26'7 7.5
2014-Dec-19 21:33N 39°15' W 076°33'0 0.0
2014-Dec-19 20:30N 39°15' W 076°33'0 0.0
2014-Dec-19 19:33N 39°15' W 076°33'0 0.0
2014-Dec-19 18:30N 39°15' W 076°33'0 0.0
2014-Dec-19 17:30N 39°15' W 076°33'0 0.0
2014-Dec-19 16:33N 39°15' W 076°33'0 0.0
2014-Dec-19 15:33N 39°15' W 076°33'0 0.0
2014-Dec-19 14:33N 39°15' W 076°33'0 0.0
2014-Dec-19 13:33N 39°15' W 076°33'0 0.0
2014-Dec-19 12:33N 39°15' W 076°33'1 1.1
2014-Dec-19 11:33N 39°14' W 076°33'9 8.7
2014-Dec-19 10:33N 39°08' W 076°24'1414.0
2014-Dec-19 09:33N 38°54' W 076°24'119 5.2
2014-Dec-18 10:33N 39°20' W 073°54'1212.2
2014-Dec-18 09:33N 39°32' W 073°53'1212.2
2014-Dec-18 08:33N 39°44' W 073°51'1212.4
2014-Dec-18 07:33N 39°57' W 073°50'2210.8
2014-Dec-18 05:33N 40°18' W 073°49'8 8.3
2014-Dec-18 04:33N 40°27' W 073°50'1010.5
2014-Dec-18 03:33N 40°32' W 074°01'9 8.8
2014-Dec-18 02:33N 40°39' W 074°09'2 2.2
2014-Dec-18 01:33N 40°41' W 074°09'0 0.0
2014-Dec-18 00:33N 40°41' W 074°09'0 0.0
2014-Dec-17 23:33N 40°41' W 074°09'0 0.1
2014-Dec-17 22:33N 40°41' W 074°09'0 0.1
2014-Dec-17 21:33N 40°41' W 074°09'0 0.0
2014-Dec-17 20:33N 40°41' W 074°09'0 0.0
2014-Dec-17 19:33N 40°41' W 074°09'0 0.0
2014-Dec-17 18:33N 40°41' W 074°09'0 0.0
2014-Dec-17 17:33N 40°41' W 074°09'0 0.0
2014-Dec-17 16:33N 40°41' W 074°09'0 0.0
2014-Dec-17 15:33N 40°41' W 074°09'0 0.0
2014-Dec-17 14:33N 40°41' W 074°09'0 0.0
2014-Dec-17 13:33N 40°41' W 074°09'0 0.0
2014-Dec-17 12:33N 40°41' W 074°09'1 0.8
2014-Dec-17 11:34N 40°40' W 074°08'4 4.2
2014-Dec-17 10:33N 40°38' W 074°03'1110.5
2014-Dec-17 09:32N 40°30' W 073°55'6913.3
2014-Dec-17 04:19N 39°52' W 072°39'1316.7
2014-Dec-17 03:33N 39°46' W 072°25'1717.4
2014-Dec-17 02:33N 39°37' W 072°05'1717.3
2014-Dec-17 01:34N 39°28' W 071°46'1817.6
2014-Dec-17 00:34N 39°15' W 071°30'1817.7
2014-Dec-16 23:31N 39°02' W 071°14'2317.7
2014-Dec-16 22:12N 38°46' W 070°53'  
Track history (hours):
 
Tides and Currents Weather Stations Pressure Air Temp Water Temp Dewpoint Dewpoint Depression Visibility Wind Speed Wind Dir Waves Ship Positions

Maersk Visby

Last reported at 2014-Dec-21 16:06 UTC. Time now 2014-Dec-22 05:00 UTC.
Position N 34°12' W 076°29'.

Length 180 m; draft 8.2 m.

Type: Ship (hazmat cat D). MMSI: 564979000.

Date/timePositionNaut miles runAvg speedWind from/ knotsBaromVisibWave heightAir tempDewpointWater temp
2014-Dec-21 16:06N 34°12' W 076°29'712.3
2014-Dec-21 15:30N 34°16' W 076°22'216 6.0
2014-Dec-20 03:14N 37°52' W 076°10'1317.9
2014-Dec-20 02:29N 38°05' W 076°13'3618.5
2014-Dec-20 00:33N 38°40' W 076°25'1817.6
2014-Dec-19 23:34N 38°57' W 076°23'1313.2
2014-Dec-19 22:33N 39°10' W 076°26'7 7.5
2014-Dec-19 21:33N 39°15' W 076°33'0 0.0
2014-Dec-19 20:30N 39°15' W 076°33'0 0.0
2014-Dec-19 19:33N 39°15' W 076°33'0 0.0
2014-Dec-19 18:30N 39°15' W 076°33'0 0.0
2014-Dec-19 17:30N 39°15' W 076°33'0 0.0
2014-Dec-19 16:33N 39°15' W 076°33'0 0.0
2014-Dec-19 15:33N 39°15' W 076°33'0 0.0
2014-Dec-19 14:33N 39°15' W 076°33'0 0.0
2014-Dec-19 13:33N 39°15' W 076°33'0 0.0
2014-Dec-19 12:33N 39°15' W 076°33'1 1.1
2014-Dec-19 11:33N 39°14' W 076°33'9 8.7
2014-Dec-19 10:33N 39°08' W 076°24'1414.0
2014-Dec-19 09:33N 38°54' W 076°24'119 5.2
2014-Dec-18 10:33N 39°20' W 073°54'1212.2
2014-Dec-18 09:33N 39°32' W 073°53'1212.2
2014-Dec-18 08:33N 39°44' W 073°51'1212.4
2014-Dec-18 07:33N 39°57' W 073°50'2210.8
2014-Dec-18 05:33N 40°18' W 073°49'8 8.3
2014-Dec-18 04:33N 40°27' W 073°50'1010.5
2014-Dec-18 03:33N 40°32' W 074°01'9 8.8
2014-Dec-18 02:33N 40°39' W 074°09'2 2.2
2014-Dec-18 01:33N 40°41' W 074°09'0 0.0
2014-Dec-18 00:33N 40°41' W 074°09'0 0.0
2014-Dec-17 23:33N 40°41' W 074°09'0 0.1
2014-Dec-17 22:33N 40°41' W 074°09'0 0.1
2014-Dec-17 21:33N 40°41' W 074°09'0 0.0
2014-Dec-17 20:33N 40°41' W 074°09'0 0.0
2014-Dec-17 19:33N 40°41' W 074°09'0 0.0
2014-Dec-17 18:33N 40°41' W 074°09'0 0.0
2014-Dec-17 17:33N 40°41' W 074°09'0 0.0
2014-Dec-17 16:33N 40°41' W 074°09'0 0.0
2014-Dec-17 15:33N 40°41' W 074°09'0 0.0
2014-Dec-17 14:33N 40°41' W 074°09'0 0.0
2014-Dec-17 13:33N 40°41' W 074°09'0 0.0
2014-Dec-17 12:33N 40°41' W 074°09'1 0.8
2014-Dec-17 11:34N 40°40' W 074°08'4 4.2
2014-Dec-17 10:33N 40°38' W 074°03'1110.5
2014-Dec-17 09:32N 40°30' W 073°55'6913.3
2014-Dec-17 04:19N 39°52' W 072°39'1316.7
2014-Dec-17 03:33N 39°46' W 072°25'1717.4
2014-Dec-17 02:33N 39°37' W 072°05'1717.3
2014-Dec-17 01:34N 39°28' W 071°46'1817.6
2014-Dec-17 00:34N 39°15' W 071°30'1817.7
2014-Dec-16 23:31N 39°02' W 071°14'2317.7
2014-Dec-16 22:12N 38°46' W 070°53'  

Dump ship's entire track history